sensor_id;sensor_type;location;lat;lon;timestamp;pressure;altitude;pressure_sealevel;temperature;humidity
68226;BME280;55045;49.410;11.030;2023-01-30T00:03:01;98612.81;;;-5.80;100.00
68226;BME280;55045;49.410;11.030;2023-01-30T00:06:05;98613.38;;;-5.56;100.00
68226;BME280;55045;49.410;11.030;2023-01-30T00:09:11;98590.34;;;-5.68;100.00
68226;BME280;55045;49.410;11.030;2023-01-30T00:12:18;98601.78;;;-5.47;100.00
68226;BME280;55045;49.410;11.030;2023-01-30T00:15:21;98589.59;;;-5.64;100.00
68226;BME280;55045;49.410;11.030;2023-01-30T00:18:26;98578.06;;;-5.89;100.00
68226;BME280;55045;49.410;11.030;2023-01-30T00:21:48;98548.22;;;-5.69;100.00
68226;BME280;55045;49.410;11.030;2023-01-30T00:24:51;98528.75;;;-5.73;100.00
68226;BME280;55045;49.410;11.030;2023-01-30T00:27:57;98527.56;;;-6.25;100.00
68226;BME280;55045;49.410;11.030;2023-01-30T00:31:01;98487.50;;;-6.11;100.00
68226;BME280;55045;49.410;11.030;2023-01-30T00:34:06;98535.81;;;-5.97;100.00
68226;BME280;55045;49.410;11.030;2023-01-30T00:37:09;98567.78;;;-5.62;100.00
68226;BME280;55045;49.410;11.030;2023-01-30T00:40:31;98558.00;;;-5.07;100.00
68226;BME280;55045;49.410;11.030;2023-01-30T00:43:35;98551.50;;;-6.11;100.00
68226;BME280;55045;49.410;11.030;2023-01-30T00:46:56;98588.22;;;-5.87;100.00
68226;BME280;55045;49.410;11.030;2023-01-30T00:50:11;98606.94;;;-5.79;100.00
68226;BME280;55045;49.410;11.030;2023-01-30T00:53:17;98515.16;;;-6.50;100.00
68226;BME280;55045;49.410;11.030;2023-01-30T00:56:22;98619.25;;;-5.93;100.00
68226;BME280;55045;49.410;11.030;2023-01-30T00:59:25;98608.66;;;-5.78;100.00
68226;BME280;55045;49.410;11.030;2023-01-30T01:02:29;98604.00;;;-5.61;100.00
68226;BME280;55045;49.410;11.030;2023-01-30T01:05:34;98629.88;;;-4.96;100.00
68226;BME280;55045;49.410;11.030;2023-01-30T01:08:56;98620.22;;;-4.75;100.00
68226;BME280;55045;49.410;11.030;2023-01-30T01:11:59;98633.25;;;-4.11;100.00
68226;BME280;55045;49.410;11.030;2023-01-30T01:15:23;98624.22;;;-3.97;100.00
68226;BME280;55045;49.410;11.030;2023-01-30T01:18:28;98588.47;;;-4.59;100.00
68226;BME280;55045;49.410;11.030;2023-01-30T01:21:32;98605.72;;;-3.91;100.00
68226;BME280;55045;49.410;11.030;2023-01-30T01:24:36;98607.47;;;-4.36;100.00
68226;BME280;55045;49.410;11.030;2023-01-30T01:27:39;98606.78;;;-4.27;100.00
68226;BME280;55045;49.410;11.030;2023-01-30T01:31:07;98597.22;;;-3.95;100.00
68226;BME280;55045;49.410;11.030;2023-01-30T01:34:10;98608.53;;;-3.74;100.00
68226;BME280;55045;49.410;11.030;2023-01-30T01:37:19;98586.22;;;-3.42;100.00
68226;BME280;55045;49.410;11.030;2023-01-30T01:40:24;98594.00;;;-3.29;100.00
68226;BME280;55045;49.410;11.030;2023-01-30T01:44:04;98579.72;;;-3.24;100.00
68226;BME280;55045;49.410;11.030;2023-01-30T01:47:27;98580.00;;;-3.04;100.00
68226;BME280;55045;49.410;11.030;2023-01-30T01:50:52;98460.03;;;-3.60;100.00
68226;BME280;55045;49.410;11.030;2023-01-30T01:54:03;98537.94;;;-2.85;100.00
68226;BME280;55045;49.410;11.030;2023-01-30T01:57:13;98471.66;;;-3.08;100.00
68226;BME280;55045;49.410;11.030;2023-01-30T02:00:19;98540.88;;;-2.45;100.00
68226;BME280;55045;49.410;11.030;2023-01-30T02:03:25;98512.03;;;-2.53;100.00
68226;BME280;55045;49.410;11.030;2023-01-30T02:06:49;98533.44;;;-2.27;100.00
68226;BME280;55045;49.410;11.030;2023-01-30T02:09:55;98458.59;;;-2.66;100.00
68226;BME280;55045;49.410;11.030;2023-01-30T02:12:59;98502.84;;;-2.38;100.00
68226;BME280;55045;49.410;11.030;2023-01-30T02:16:05;98500.31;;;-2.38;100.00
68226;BME280;55045;49.410;11.030;2023-01-30T02:19:23;98468.09;;;-2.43;100.00
68226;BME280;55045;49.410;11.030;2023-01-30T02:22:35;98426.38;;;-2.70;100.00
68226;BME280;55045;49.410;11.030;2023-01-30T02:26:12;98478.38;;;-2.28;100.00
68226;BME280;55045;49.410;11.030;2023-01-30T02:29:41;98467.38;;;-2.25;100.00
68226;BME280;55045;49.410;11.030;2023-01-30T02:32:57;98424.19;;;-2.30;100.00
68226;BME280;55045;49.410;11.030;2023-01-30T02:36:11;98413.16;;;-2.32;100.00
68226;BME280;55045;49.410;11.030;2023-01-30T02:39:27;98406.53;;;-2.10;100.00
68226;BME280;55045;49.410;11.030;2023-01-30T02:42:38;98422.63;;;-2.11;100.00
68226;BME280;55045;49.410;11.030;2023-01-30T02:45:51;98432.78;;;-2.11;100.00
68226;BME280;55045;49.410;11.030;2023-01-30T02:49:20;98414.09;;;-2.18;100.00
68226;BME280;55045;49.410;11.030;2023-01-30T02:52:26;98429.56;;;-1.87;100.00
68226;BME280;55045;49.410;11.030;2023-01-30T02:55:29;98438.00;;;-1.91;100.00
68226;BME280;55045;49.410;11.030;2023-01-30T02:58:37;98387.03;;;-2.13;100.00
68226;BME280;55045;49.410;11.030;2023-01-30T03:02:09;98422.78;;;-1.88;100.00
68226;BME280;55045;49.410;11.030;2023-01-30T03:05:34;98404.13;;;-1.92;100.00
68226;BME280;55045;49.410;11.030;2023-01-30T03:08:49;98421.97;;;-1.80;100.00
68226;BME280;55045;49.410;11.030;2023-01-30T03:12:00;98382.94;;;-1.92;100.00
68226;BME280;55045;49.410;11.030;2023-01-30T03:15:12;98375.31;;;-1.89;100.00
68226;BME280;55045;49.410;11.030;2023-01-30T03:18:19;98397.44;;;-1.70;100.00
68226;BME280;55045;49.410;11.030;2023-01-30T03:21:44;98373.72;;;-1.72;100.00
68226;BME280;55045;49.410;11.030;2023-01-30T03:24:48;98310.81;;;-2.07;100.00
68226;BME280;55045;49.410;11.030;2023-01-30T03:27:54;98365.25;;;-1.71;100.00
68226;BME280;55045;49.410;11.030;2023-01-30T03:30:59;98310.81;;;-2.10;100.00
68226;BME280;55045;49.410;11.030;2023-01-30T03:34:03;98350.81;;;-1.72;100.00
68226;BME280;55045;49.410;11.030;2023-01-30T03:37:08;98363.56;;;-1.66;100.00
68226;BME280;55045;49.410;11.030;2023-01-30T03:40:13;98336.41;;;-1.73;100.00
68226;BME280;55045;49.410;11.030;2023-01-30T03:43:18;98338.91;;;-1.84;100.00
68226;BME280;55045;49.410;11.030;2023-01-30T03:46:21;98361.00;;;-1.70;100.00
68226;BME280;55045;49.410;11.030;2023-01-30T03:49:25;98316.00;;;-1.88;100.00
68226;BME280;55045;49.410;11.030;2023-01-30T03:52:33;98330.44;;;-1.77;100.00
68226;BME280;55045;49.410;11.030;2023-01-30T03:55:37;98311.81;;;-1.80;100.00
68226;BME280;55045;49.410;11.030;2023-01-30T03:58:41;98350.06;;;-1.53;100.00
68226;BME280;55045;49.410;11.030;2023-01-30T04:01:54;98325.34;;;-1.81;100.00
68226;BME280;55045;49.410;11.030;2023-01-30T04:04:59;98308.41;;;-1.79;100.00
68226;BME280;55045;49.410;11.030;2023-01-30T04:08:05;98320.31;;;-1.64;100.00
68226;BME280;55045;49.410;11.030;2023-01-30T04:11:09;98313.50;;;-1.84;100.00
68226;BME280;55045;49.410;11.030;2023-01-30T04:14:13;98316.03;;;-1.76;100.00
68226;BME280;55045;49.410;11.030;2023-01-30T04:17:37;98349.22;;;-1.52;100.00
68226;BME280;55045;49.410;11.030;2023-01-30T04:21:05;98350.09;;;-1.37;100.00
68226;BME280;55045;49.410;11.030;2023-01-30T04:24:13;98338.16;;;-1.63;100.00
68226;BME280;55045;49.410;11.030;2023-01-30T04:27:17;98358.53;;;-1.48;100.00
68226;BME280;55045;49.410;11.030;2023-01-30T04:44:53;98255.00;;;-1.87;100.00
68226;BME280;55045;49.410;11.030;2023-01-30T04:48:02;98334.88;;;-1.19;100.00
68226;BME280;55045;49.410;11.030;2023-01-30T04:51:24;98350.97;;;-1.25;100.00
68226;BME280;55045;49.410;11.030;2023-01-30T04:54:29;98316.13;;;-1.53;100.00
68226;BME280;55045;49.410;11.030;2023-01-30T04:57:35;98353.50;;;-1.23;100.00
68226;BME280;55045;49.410;11.030;2023-01-30T05:00:40;98281.31;;;-1.68;100.00
68226;BME280;55045;49.410;11.030;2023-01-30T05:03:43;98341.63;;;-1.24;100.00
68226;BME280;55045;49.410;11.030;2023-01-30T05:06:48;98320.41;;;-1.37;100.00
68226;BME280;55045;49.410;11.030;2023-01-30T05:09:51;98297.47;;;-1.54;100.00
68226;BME280;55045;49.410;11.030;2023-01-30T05:12:55;98282.19;;;-1.55;100.00
68226;BME280;55045;49.410;11.030;2023-01-30T05:16:00;98318.72;;;-1.39;100.00
68226;BME280;55045;49.410;11.030;2023-01-30T05:19:04;98306.00;;;-1.39;100.00
68226;BME280;55045;49.410;11.030;2023-01-30T05:22:08;98313.59;;;-1.47;100.00
68226;BME280;55045;49.410;11.030;2023-01-30T05:25:11;98319.53;;;-1.43;100.00
68226;BME280;55045;49.410;11.030;2023-01-30T05:28:15;98311.06;;;-1.46;100.00
68226;BME280;55045;49.410;11.030;2023-01-30T05:31:20;98287.31;;;-1.51;100.00
68226;BME280;55045;49.410;11.030;2023-01-30T05:34:43;98305.13;;;-1.49;100.00
68226;BME280;55045;49.410;11.030;2023-01-30T05:38:05;98301.66;;;-1.65;100.00
68226;BME280;55045;49.410;11.030;2023-01-30T05:41:10;98325.44;;;-1.58;100.00
68226;BME280;55045;49.410;11.030;2023-01-30T05:44:14;98328.84;;;-1.50;100.00
68226;BME280;55045;49.410;11.030;2023-01-30T05:47:19;98305.91;;;-1.67;100.00
68226;BME280;55045;49.410;11.030;2023-01-30T05:50:23;98302.47;;;-1.75;100.00
68226;BME280;55045;49.410;11.030;2023-01-30T05:53:45;98323.75;;;-1.61;100.00
68226;BME280;55045;49.410;11.030;2023-01-30T05:56:49;98321.22;;;-1.52;100.00
68226;BME280;55045;49.410;11.030;2023-01-30T05:59:55;98311.91;;;-1.48;100.00
68226;BME280;55045;49.410;11.030;2023-01-30T06:03:00;98295.81;;;-1.38;100.00
68226;BME280;55045;49.410;11.030;2023-01-30T06:06:05;98268.66;;;-1.43;100.00
68226;BME280;55045;49.410;11.030;2023-01-30T06:09:09;98280.56;;;-1.42;100.00
68226;BME280;55045;49.410;11.030;2023-01-30T06:12:14;98286.50;;;-1.39;100.00
68226;BME280;55045;49.410;11.030;2023-01-30T06:15:17;98283.94;;;-1.42;100.00
68226;BME280;55045;49.410;11.030;2023-01-30T06:18:44;98279.69;;;-1.46;100.00
68226;BME280;55045;49.410;11.030;2023-01-30T06:21:49;98279.69;;;-1.46;100.00
68226;BME280;55045;49.410;11.030;2023-01-30T06:24:52;98282.22;;;-1.45;100.00
68226;BME280;55045;49.410;11.030;2023-01-30T06:27:55;98268.66;;;-1.47;100.00
68226;BME280;55045;49.410;11.030;2023-01-30T06:30:59;98255.91;;;-1.56;100.00
68226;BME280;55045;49.410;11.030;2023-01-30T06:34:04;98276.31;;;-1.42;100.00
68226;BME280;55045;49.410;11.030;2023-01-30T06:37:08;98266.97;;;-1.46;100.00
68226;BME280;55045;49.410;11.030;2023-01-30T06:40:12;98242.38;;;-1.52;100.00
68226;BME280;55045;49.410;11.030;2023-01-30T06:43:16;98271.25;;;-1.31;100.00
68226;BME280;55045;49.410;11.030;2023-01-30T06:46:20;98281.41;;;-1.25;100.00
68226;BME280;55045;49.410;11.030;2023-01-30T06:49:25;98208.44;;;-1.69;100.00
68226;BME280;55045;49.410;11.030;2023-01-30T06:52:29;98289.88;;;-1.26;100.00
68226;BME280;55045;49.410;11.030;2023-01-30T06:55:34;98282.25;;;-1.23;100.00
68226;BME280;55045;49.410;11.030;2023-01-30T06:58:37;98278.00;;;-1.23;100.00
68226;BME280;55045;49.410;11.030;2023-01-30T07:01:41;98276.34;;;-1.18;100.00
68226;BME280;55045;49.410;11.030;2023-01-30T07:04:46;98271.25;;;-1.18;100.00
68226;BME280;55045;49.410;11.030;2023-01-30T07:07:50;98280.59;;;-1.06;100.00
68226;BME280;55045;49.410;11.030;2023-01-30T07:10:53;98252.56;;;-1.23;100.00
68226;BME280;55045;49.410;11.030;2023-01-30T07:14:15;98277.19;;;-0.90;100.00
68226;BME280;55045;49.410;11.030;2023-01-30T07:17:20;98248.34;;;-1.07;100.00
68226;BME280;55045;49.410;11.030;2023-01-30T07:20:25;98220.34;;;-1.34;100.00
68226;BME280;55045;49.410;11.030;2023-01-30T07:23:31;98273.78;;;-0.85;100.00
68226;BME280;55045;49.410;11.030;2023-01-30T07:26:34;98224.59;;;-1.17;100.00
68226;BME280;55045;49.410;11.030;2023-01-30T07:29:39;98243.25;;;-0.92;100.00
68226;BME280;55045;49.410;11.030;2023-01-30T07:32:43;98243.25;;;-1.01;100.00
68226;BME280;55045;49.410;11.030;2023-01-30T07:35:48;98250.03;;;-0.89;100.00
68226;BME280;55045;49.410;11.030;2023-01-30T07:38:51;98196.59;;;-1.09;100.00
68226;BME280;55045;49.410;11.030;2023-01-30T07:41:59;98225.41;;;-0.93;100.00
68226;BME280;55045;49.410;11.030;2023-01-30T07:45:03;98190.63;;;-1.12;100.00
68226;BME280;55045;49.410;11.030;2023-01-30T07:48:09;98188.97;;;-1.17;100.00
68226;BME280;55045;49.410;11.030;2023-01-30T07:51:15;98233.06;;;-0.79;100.00
68226;BME280;55045;49.410;11.030;2023-01-30T07:54:37;98212.69;;;-0.79;100.00
68226;BME280;55045;49.410;11.030;2023-01-30T07:57:41;98170.25;;;-0.85;100.00
68226;BME280;55045;49.410;11.030;2023-01-30T08:00:45;98183.78;;;-0.63;100.00
68226;BME280;55045;49.410;11.030;2023-01-30T08:03:48;98190.56;;;-0.56;100.00
68226;BME280;55045;49.410;11.030;2023-01-30T08:06:53;98179.47;;;-0.44;100.00
68226;BME280;55045;49.410;11.030;2023-01-30T08:09:57;98163.38;;;-0.55;100.00
68226;BME280;55045;49.410;11.030;2023-01-30T08:13:00;98162.56;;;-0.59;100.00
68226;BME280;55045;49.410;11.030;2023-01-30T08:16:06;98143.00;;;-0.57;100.00
68226;BME280;55045;49.410;11.030;2023-01-30T08:19:10;98156.56;;;-0.55;100.00
68226;BME280;55045;49.410;11.030;2023-01-30T08:22:14;98098.13;;;-0.93;100.00
68226;BME280;55045;49.410;11.030;2023-01-30T08:25:18;98154.00;;;-0.52;100.00
68226;BME280;55045;49.410;11.030;2023-01-30T08:28:22;98161.66;;;-0.49;100.00
68226;BME280;55045;49.410;11.030;2023-01-30T08:31:25;98168.38;;;-0.34;100.00
68226;BME280;55045;49.410;11.030;2023-01-30T08:34:29;98120.06;;;-0.51;100.00
68226;BME280;55045;49.410;11.030;2023-01-30T08:37:35;98155.63;;;-0.31;100.00
68226;BME280;55045;49.410;11.030;2023-01-30T08:40:57;98127.63;;;-0.42;100.00
68226;BME280;55045;49.410;11.030;2023-01-30T08:44:04;98169.22;;;-0.32;100.00
68226;BME280;55045;49.410;11.030;2023-01-30T08:47:10;98137.78;;;-0.31;100.00
68226;BME280;55045;49.410;11.030;2023-01-30T08:50:20;98151.34;;;-0.24;100.00
68226;BME280;55045;49.410;11.030;2023-01-30T08:53:26;98125.94;;;-0.41;100.00
68226;BME280;55045;49.410;11.030;2023-01-30T08:56:30;98068.34;;;-0.71;100.00
68226;BME280;55045;49.410;11.030;2023-01-30T08:59:33;98078.50;;;-0.67;100.00
68226;BME280;55045;49.410;11.030;2023-01-30T09:02:37;98174.38;;;-0.43;100.00
68226;BME280;55045;49.410;11.030;2023-01-30T09:05:41;98165.09;;;-0.59;100.00
68226;BME280;55045;49.410;11.030;2023-01-30T09:08:46;98182.06;;;-0.58;100.00
68226;BME280;55045;49.410;11.030;2023-01-30T09:11:50;98189.72;;;-0.61;100.00
68226;BME280;55045;49.410;11.030;2023-01-30T09:14:54;98185.47;;;-0.56;100.00
68226;BME280;55045;49.410;11.030;2023-01-30T09:18:03;98086.34;;;-1.46;100.00
68226;BME280;55045;49.410;11.030;2023-01-30T09:21:10;97926.28;;;-2.21;100.00
68226;BME280;55045;49.410;11.030;2023-01-30T09:24:19;98172.75;;;-0.74;100.00
68226;BME280;55045;49.410;11.030;2023-01-30T09:27:27;98130.41;;;-1.01;100.00
68226;BME280;55045;49.410;11.030;2023-01-30T09:30:31;98158.34;;;-0.75;100.00
68226;BME280;55045;49.410;11.030;2023-01-30T09:33:35;98140.53;;;-0.84;100.00
68226;BME280;55045;49.410;11.030;2023-01-30T09:36:40;98056.69;;;-1.41;100.00
68226;BME280;55045;49.410;11.030;2023-01-30T09:39:45;98143.03;;;-0.66;100.00
68226;BME280;55045;49.410;11.030;2023-01-30T09:43:05;98131.97;;;-0.56;100.00
68226;BME280;55045;49.410;11.030;2023-01-30T09:46:23;98084.50;;;-0.77;100.00
68226;BME280;55045;49.410;11.030;2023-01-30T09:49:41;98094.66;;;-0.68;100.00
68226;BME280;55045;49.410;11.030;2023-01-30T09:52:55;98137.03;;;-0.48;100.00
68226;BME280;55045;49.410;11.030;2023-01-30T09:56:08;98066.66;;;-0.75;100.00
68226;BME280;55045;49.410;11.030;2023-01-30T09:59:20;98076.78;;;-0.63;100.00
68226;BME280;55045;49.410;11.030;2023-01-30T10:02:46;98141.13;;;-0.17;100.00
68226;BME280;55045;49.410;11.030;2023-01-30T10:05:54;98130.03;;;-0.08;100.00
68226;BME280;55045;49.410;11.030;2023-01-30T10:09:03;98058.00;;;-0.44;100.00
68226;BME280;55045;49.410;11.030;2023-01-30T10:12:25;98119.75;;;0.04;100.00
68226;BME280;55045;49.410;11.030;2023-01-30T10:15:45;98110.38;;;0.06;100.00
68226;BME280;55045;49.410;11.030;2023-01-30T10:19:11;98096.75;;;0.10;100.00
68226;BME280;55045;49.410;11.030;2023-01-30T10:22:43;98093.38;;;0.11;100.00
68226;BME280;55045;49.410;11.030;2023-01-30T10:26:09;98085.72;;;0.08;100.00
68226;BME280;55045;49.410;11.030;2023-01-30T10:29:18;98103.25;;;0.51;100.00
68226;BME280;55045;49.410;11.030;2023-01-30T10:34:32;98106.91;;;0.19;100.00
68226;BME280;55045;49.410;11.030;2023-01-30T10:37:43;98078.09;;;0.05;100.00
68226;BME280;55045;49.410;11.030;2023-01-30T10:40:56;98088.19;;;0.23;100.00
68226;BME280;55045;49.410;11.030;2023-01-30T10:44:03;98076.28;;;0.19;100.00
68226;BME280;55045;49.410;11.030;2023-01-30T10:47:28;98026.28;;;-0.02;100.00
68226;BME280;55045;49.410;11.030;2023-01-30T10:50:51;98072.81;;;0.29;100.00
68226;BME280;55045;49.410;11.030;2023-01-30T10:53:59;98089.81;;;0.31;100.00
68226;BME280;55045;49.410;11.030;2023-01-30T10:57:17;98047.44;;;0.14;100.00
68226;BME280;55045;49.410;11.030;2023-01-30T11:00:28;98091.50;;;0.33;100.00
68226;BME280;55045;49.410;11.030;2023-01-30T11:03:34;98119.47;;;0.45;100.00
68226;BME280;55045;49.410;11.030;2023-01-30T11:07:01;98092.38;;;0.29;100.00
68226;BME280;55045;49.410;11.030;2023-01-30T11:10:26;98077.84;;;0.39;100.00
68226;BME280;55045;49.410;11.030;2023-01-30T11:13:47;98095.66;;;0.45;100.00
68226;BME280;55045;49.410;11.030;2023-01-30T11:16:53;98040.63;;;0.15;100.00
68226;BME280;55045;49.410;11.030;2023-01-30T11:20:04;98096.41;;;0.56;100.00
68226;BME280;55045;49.410;11.030;2023-01-30T11:23:23;98027.06;;;0.10;100.00
68226;BME280;55045;49.410;11.030;2023-01-30T11:26:33;98074.41;;;0.40;100.00
68226;BME280;55045;49.410;11.030;2023-01-30T11:29:50;98109.22;;;0.50;100.00
68226;BME280;55045;49.410;11.030;2023-01-30T11:33:10;98091.38;;;0.47;100.00
68226;BME280;55045;49.410;11.030;2023-01-30T11:36:26;98045.72;;;0.16;100.00
68226;BME280;55045;49.410;11.030;2023-01-30T11:39:33;98057.44;;;0.39;100.00
68226;BME280;55045;49.410;11.030;2023-01-30T11:42:43;98044.81;;;0.23;100.00
68226;BME280;55045;49.410;11.030;2023-01-30T11:45:49;98068.38;;;0.53;100.00
68226;BME280;55045;49.410;11.030;2023-01-30T11:49:00;98081.06;;;0.62;100.00
68226;BME280;55045;49.410;11.030;2023-01-30T11:52:29;98001.50;;;0.17;100.00
68226;BME280;55045;49.410;11.030;2023-01-30T11:55:37;98091.16;;;0.73;100.00
68226;BME280;55045;49.410;11.030;2023-01-30T11:59:06;98071.56;;;0.75;100.00
68226;BME280;55045;49.410;11.030;2023-01-30T12:02:15;98079.44;;;0.52;100.00
68226;BME280;55045;49.410;11.030;2023-01-30T12:05:29;98003.41;;;-0.08;100.00
68226;BME280;55045;49.410;11.030;2023-01-30T12:08:37;98120.03;;;0.76;100.00
68226;BME280;55045;49.410;11.030;2023-01-30T12:12:25;97998.25;;;0.02;100.00
68226;BME280;55045;49.410;11.030;2023-01-30T12:15:30;98075.69;;;0.86;100.00
68226;BME280;55045;49.410;11.030;2023-01-30T12:18:38;98090.03;;;0.98;100.00
68226;BME280;55045;49.410;11.030;2023-01-30T12:21:51;98067.31;;;0.75;100.00
68226;BME280;55045;49.410;11.030;2023-01-30T12:25:01;98088.38;;;0.96;100.00
68226;BME280;55045;49.410;11.030;2023-01-30T12:28:17;98077.38;;;0.88;100.00
68226;BME280;55045;49.410;11.030;2023-01-30T12:31:30;97932.03;;;-0.06;100.00
68226;BME280;55045;49.410;11.030;2023-01-30T12:34:37;98090.13;;;0.92;100.00
68226;BME280;55045;49.410;11.030;2023-01-30T12:37:49;98078.97;;;0.99;100.00
68226;BME280;55045;49.410;11.030;2023-01-30T12:41:07;98069.56;;;1.03;100.00
68226;BME280;55045;49.410;11.030;2023-01-30T12:44:46;98077.19;;;1.06;100.00
68226;BME280;55045;49.410;11.030;2023-01-30T12:48:11;98040.63;;;1.01;100.00
68226;BME280;55045;49.410;11.030;2023-01-30T12:51:31;98056.03;;;0.96;100.00
68226;BME280;55045;49.410;11.030;2023-01-30T12:54:49;98078.09;;;1.03;100.00
68226;BME280;55045;49.410;11.030;2023-01-30T12:57:59;98098.50;;;1.03;100.00
68226;BME280;55045;49.410;11.030;2023-01-30T13:01:17;98092.41;;;1.17;100.00
68226;BME280;55045;49.410;11.030;2023-01-30T13:04:35;98041.44;;;1.06;100.00
68226;BME280;55045;49.410;11.030;2023-01-30T13:08:30;98092.25;;;1.29;100.00
68226;BME280;55045;49.410;11.030;2023-01-30T13:11:45;98062.41;;;1.34;100.00
68226;BME280;55045;49.410;11.030;2023-01-30T13:14:58;98053.59;;;1.56;100.00
68226;BME280;55045;49.410;11.030;2023-01-30T13:18:09;98048.41;;;1.59;100.00
68226;BME280;55045;49.410;11.030;2023-01-30T13:21:19;98047.41;;;1.71;100.00
68226;BME280;55045;49.410;11.030;2023-01-30T13:24:27;98020.63;;;1.36;100.00
68226;BME280;55045;49.410;11.030;2023-01-30T13:27:39;98062.00;;;1.64;100.00
68226;BME280;55045;49.410;11.030;2023-01-30T13:30:47;98023.34;;;1.24;100.00
68226;BME280;55045;49.410;11.030;2023-01-30T13:34:03;98064.56;;;1.61;100.00
68226;BME280;55045;49.410;11.030;2023-01-30T13:37:10;98095.16;;;1.69;100.00
68226;BME280;55045;49.410;11.030;2023-01-30T13:40:16;98079.88;;;1.66;100.00
68226;BME280;55045;49.410;11.030;2023-01-30T13:43:25;98036.72;;;1.41;100.00
68226;BME280;55045;49.410;11.030;2023-01-30T13:46:32;98062.88;;;1.62;100.00
68226;BME280;55045;49.410;11.030;2023-01-30T13:49:41;98084.97;;;1.66;100.00
68226;BME280;55045;49.410;11.030;2023-01-30T13:52:55;98063.31;;;1.28;100.00
68226;BME280;55045;49.410;11.030;2023-01-30T13:56:10;98070.69;;;1.50;100.00
68226;BME280;55045;49.410;11.030;2023-01-30T13:59:55;98013.88;;;1.29;100.00
68226;BME280;55045;49.410;11.030;2023-01-30T14:03:27;98047.66;;;1.53;100.00
68226;BME280;55045;49.410;11.030;2023-01-30T14:06:37;98032.34;;;1.51;100.00
68226;BME280;55045;49.410;11.030;2023-01-30T14:09:44;98056.13;;;1.58;100.00
68226;BME280;55045;49.410;11.030;2023-01-30T14:12:51;98040.91;;;1.49;100.00
68226;BME280;55045;49.410;11.030;2023-01-30T14:15:57;98046.03;;;1.47;100.00
68226;BME280;55045;49.410;11.030;2023-01-30T14:19:32;98058.72;;;1.53;100.00
68226;BME280;55045;49.410;11.030;2023-01-30T14:22:48;98036.19;;;1.18;100.00
68226;BME280;55045;49.410;11.030;2023-01-30T14:25:55;98054.72;;;1.34;100.00
68226;BME280;55045;49.410;11.030;2023-01-30T14:29:02;98059.88;;;1.29;100.00
68226;BME280;55045;49.410;11.030;2023-01-30T14:32:34;98043.06;;;1.13;100.00
68226;BME280;55045;49.410;11.030;2023-01-30T14:39:50;98087.78;;;1.48;100.00
68226;BME280;55045;49.410;11.030;2023-01-30T14:46:54;98093.00;;;1.38;100.00
68226;BME280;55045;49.410;11.030;2023-01-30T14:50:00;98096.34;;;1.42;100.00
68226;BME280;55045;49.410;11.030;2023-01-30T14:53:12;98115.78;;;1.57;100.00
68226;BME280;55045;49.410;11.030;2023-01-30T14:56:19;98113.13;;;1.64;100.00
68226;BME280;55045;49.410;11.030;2023-01-30T14:59:29;98095.28;;;1.60;100.00
68226;BME280;55045;49.410;11.030;2023-01-30T15:02:35;98124.06;;;1.72;100.00
68226;BME280;55045;49.410;11.030;2023-01-30T15:05:46;98104.59;;;1.65;100.00
68226;BME280;55045;49.410;11.030;2023-01-30T15:08:51;98104.78;;;1.50;100.00
68226;BME280;55045;49.410;11.030;2023-01-30T15:15:59;98114.19;;;1.47;100.00
68226;BME280;55045;49.410;11.030;2023-01-30T15:23:10;98089.56;;;1.39;100.00
68226;BME280;55045;49.410;11.030;2023-01-30T15:26:30;98150.66;;;1.61;100.00
68226;BME280;55045;49.410;11.030;2023-01-30T15:30:01;98148.06;;;1.62;100.00
68226;BME280;55045;49.410;11.030;2023-01-30T15:33:14;98116.13;;;1.28;100.00
68226;BME280;55045;49.410;11.030;2023-01-30T15:36:49;98168.53;;;1.64;100.00
68226;BME280;55045;49.410;11.030;2023-01-30T15:43:51;98139.91;;;1.34;100.00
68226;BME280;55045;49.410;11.030;2023-01-30T15:50:37;98130.88;;;1.03;100.00
68226;BME280;55045;49.410;11.030;2023-01-30T15:53:42;98204.41;;;1.55;100.00
68226;BME280;55045;49.410;11.030;2023-01-30T15:56:46;98207.75;;;1.60;100.00
68226;BME280;55045;49.410;11.030;2023-01-30T15:59:53;98205.25;;;1.55;100.00
68226;BME280;55045;49.410;11.030;2023-01-30T16:02:58;98189.22;;;1.39;100.00
68226;BME280;55045;49.410;11.030;2023-01-30T16:06:05;98212.88;;;1.58;100.00
68226;BME280;55045;49.410;11.030;2023-01-30T16:09:19;98213.78;;;1.56;100.00
68226;BME280;55045;49.410;11.030;2023-01-30T16:12:24;98206.09;;;1.56;100.00
68226;BME280;55045;49.410;11.030;2023-01-30T16:15:30;98199.25;;;1.58;100.00
68226;BME280;55045;49.410;11.030;2023-01-30T16:18:39;98218.84;;;1.59;100.00
68226;BME280;55045;49.410;11.030;2023-01-30T16:21:45;98221.38;;;1.62;100.00
68226;BME280;55045;49.410;11.030;2023-01-30T16:24:51;98229.06;;;1.60;100.00
68226;BME280;55045;49.410;11.030;2023-01-30T16:27:56;98224.06;;;1.50;100.00
68226;BME280;55045;49.410;11.030;2023-01-30T16:34:33;98247.06;;;1.50;100.00
68226;BME280;55045;49.410;11.030;2023-01-30T16:37:36;98260.66;;;1.52;100.00
68226;BME280;55045;49.410;11.030;2023-01-30T16:40:44;98267.53;;;1.47;100.00
68226;BME280;55045;49.410;11.030;2023-01-30T16:43:48;98276.88;;;1.51;100.00
68226;BME280;55045;49.410;11.030;2023-01-30T16:47:21;98281.09;;;1.52;100.00
68226;BME280;55045;49.410;11.030;2023-01-30T16:50:27;98287.16;;;1.44;100.00
68226;BME280;55045;49.410;11.030;2023-01-30T16:53:31;98305.88;;;1.48;100.00
68226;BME280;55045;49.410;11.030;2023-01-30T16:56:35;98300.75;;;1.48;100.00
68226;BME280;55045;49.410;11.030;2023-01-30T16:59:39;98310.91;;;1.56;100.00
68226;BME280;55045;49.410;11.030;2023-01-30T17:02:49;98290.56;;;1.42;100.00
68226;BME280;55045;49.410;11.030;2023-01-30T17:05:55;98308.25;;;1.63;100.00
68226;BME280;55045;49.410;11.030;2023-01-30T17:08:59;98313.47;;;1.56;100.00
68226;BME280;55045;49.410;11.030;2023-01-30T17:16:24;98327.91;;;1.60;100.00